sensor_id;sensor_type;location;lat;lon;timestamp;P1;durP1;ratioP1;P2;durP2;ratioP2
75358;SDS011;64046;51.978;5.934;2023-04-10T00:01:02;20.52;;;11.88;;
75358;SDS011;64046;51.978;5.934;2023-04-10T00:03:31;17.23;;;10.60;;
75358;SDS011;64046;51.978;5.934;2023-04-10T00:06:01;18.55;;;11.43;;
75358;SDS011;64046;51.978;5.934;2023-04-10T00:08:34;13.82;;;9.35;;
75358;SDS011;64046;51.978;5.934;2023-04-10T00:11:04;16.30;;;10.43;;
75358;SDS011;64046;51.978;5.934;2023-04-10T00:13:33;13.88;;;9.18;;
75358;SDS011;64046;51.978;5.934;2023-04-10T00:16:02;17.70;;;10.25;;
75358;SDS011;64046;51.978;5.934;2023-04-10T00:18:32;17.02;;;10.50;;
75358;SDS011;64046;51.978;5.934;2023-04-10T00:21:01;16.88;;;9.98;;
75358;SDS011;64046;51.978;5.934;2023-04-10T00:23:30;14.05;;;9.00;;
75358;SDS011;64046;51.978;5.934;2023-04-10T00:26:02;14.23;;;9.85;;
75358;SDS011;64046;51.978;5.934;2023-04-10T00:28:32;15.00;;;9.23;;
75358;SDS011;64046;51.978;5.934;2023-04-10T00:31:03;13.13;;;8.75;;
75358;SDS011;64046;51.978;5.934;2023-04-10T00:33:32;13.43;;;8.98;;
75358;SDS011;64046;51.978;5.934;2023-04-10T00:36:01;16.35;;;10.63;;
75358;SDS011;64046;51.978;5.934;2023-04-10T00:38:30;14.35;;;9.68;;
75358;SDS011;64046;51.978;5.934;2023-04-10T00:41:03;15.38;;;9.60;;
75358;SDS011;64046;51.978;5.934;2023-04-10T00:43:33;12.48;;;8.00;;
75358;SDS011;64046;51.978;5.934;2023-04-10T00:46:03;13.23;;;8.07;;
75358;SDS011;64046;51.978;5.934;2023-04-10T00:48:33;14.00;;;9.18;;
75358;SDS011;64046;51.978;5.934;2023-04-10T00:51:02;11.27;;;7.88;;
75358;SDS011;64046;51.978;5.934;2023-04-10T00:53:33;13.55;;;8.48;;
75358;SDS011;64046;51.978;5.934;2023-04-10T00:56:05;13.48;;;7.85;;
75358;SDS011;64046;51.978;5.934;2023-04-10T00:58:35;14.55;;;8.23;;
75358;SDS011;64046;51.978;5.934;2023-04-10T01:03:45;12.55;;;8.18;;
75358;SDS011;64046;51.978;5.934;2023-04-10T01:06:15;12.02;;;7.22;;
75358;SDS011;64046;51.978;5.934;2023-04-10T01:08:52;12.93;;;8.30;;
75358;SDS011;64046;51.978;5.934;2023-04-10T01:11:33;12.68;;;7.85;;
75358;SDS011;64046;51.978;5.934;2023-04-10T01:14:15;12.27;;;7.63;;
75358;SDS011;64046;51.978;5.934;2023-04-10T01:16:55;11.48;;;7.70;;
75358;SDS011;64046;51.978;5.934;2023-04-10T01:19:35;12.05;;;7.75;;
75358;SDS011;64046;51.978;5.934;2023-04-10T01:22:27;12.75;;;8.68;;
75358;SDS011;64046;51.978;5.934;2023-04-10T01:25:13;14.13;;;7.85;;
75358;SDS011;64046;51.978;5.934;2023-04-10T01:27:55;11.52;;;7.93;;
75358;SDS011;64046;51.978;5.934;2023-04-10T01:30:37;12.85;;;7.60;;
75358;SDS011;64046;51.978;5.934;2023-04-10T01:33:09;13.38;;;8.32;;
75358;SDS011;64046;51.978;5.934;2023-04-10T01:35:42;12.00;;;7.68;;
75358;SDS011;64046;51.978;5.934;2023-04-10T01:38:15;11.77;;;7.85;;
75358;SDS011;64046;51.978;5.934;2023-04-10T01:40:48;12.23;;;7.68;;
75358;SDS011;64046;51.978;5.934;2023-04-10T01:43:28;12.18;;;7.93;;
75358;SDS011;64046;51.978;5.934;2023-04-10T01:46:02;12.93;;;8.15;;
75358;SDS011;64046;51.978;5.934;2023-04-10T01:48:32;10.82;;;7.05;;
75358;SDS011;64046;51.978;5.934;2023-04-10T01:51:02;14.30;;;7.57;;
75358;SDS011;64046;51.978;5.934;2023-04-10T01:53:35;9.68;;;7.20;;
75358;SDS011;64046;51.978;5.934;2023-04-10T01:56:07;10.82;;;7.43;;
75358;SDS011;64046;51.978;5.934;2023-04-10T01:58:43;13.43;;;7.63;;
75358;SDS011;64046;51.978;5.934;2023-04-10T02:01:19;10.93;;;7.25;;
75358;SDS011;64046;51.978;5.934;2023-04-10T02:03:49;12.93;;;8.32;;
75358;SDS011;64046;51.978;5.934;2023-04-10T02:06:21;11.13;;;7.88;;
75358;SDS011;64046;51.978;5.934;2023-04-10T02:08:56;11.77;;;7.40;;
75358;SDS011;64046;51.978;5.934;2023-04-10T02:11:36;11.85;;;7.75;;
75358;SDS011;64046;51.978;5.934;2023-04-10T02:14:09;11.38;;;7.57;;
75358;SDS011;64046;51.978;5.934;2023-04-10T02:16:42;12.52;;;7.68;;
75358;SDS011;64046;51.978;5.934;2023-04-10T02:19:13;10.48;;;7.28;;
75358;SDS011;64046;51.978;5.934;2023-04-10T02:21:45;10.93;;;7.47;;
75358;SDS011;64046;51.978;5.934;2023-04-10T02:24:16;11.45;;;7.57;;
75358;SDS011;64046;51.978;5.934;2023-04-10T02:26:45;11.48;;;7.55;;
75358;SDS011;64046;51.978;5.934;2023-04-10T02:29:15;10.23;;;6.93;;
75358;SDS011;64046;51.978;5.934;2023-04-10T02:31:48;14.02;;;9.10;;
75358;SDS011;64046;51.978;5.934;2023-04-10T02:34:18;10.02;;;6.95;;
75358;SDS011;64046;51.978;5.934;2023-04-10T02:36:48;11.95;;;7.55;;
75358;SDS011;64046;51.978;5.934;2023-04-10T02:39:18;11.13;;;7.03;;
75358;SDS011;64046;51.978;5.934;2023-04-10T02:41:50;11.98;;;7.90;;
75358;SDS011;64046;51.978;5.934;2023-04-10T02:44:19;11.63;;;7.80;;
75358;SDS011;64046;51.978;5.934;2023-04-10T02:46:51;11.57;;;6.68;;
75358;SDS011;64046;51.978;5.934;2023-04-10T02:49:21;11.88;;;8.05;;
75358;SDS011;64046;51.978;5.934;2023-04-10T02:51:50;10.52;;;7.68;;
75358;SDS011;64046;51.978;5.934;2023-04-10T02:54:19;14.18;;;8.20;;
75358;SDS011;64046;51.978;5.934;2023-04-10T02:56:49;13.73;;;8.20;;
75358;SDS011;64046;51.978;5.934;2023-04-10T02:59:18;11.70;;;8.00;;
75358;SDS011;64046;51.978;5.934;2023-04-10T03:01:50;12.57;;;8.25;;
75358;SDS011;64046;51.978;5.934;2023-04-10T03:04:20;11.88;;;8.15;;
75358;SDS011;64046;51.978;5.934;2023-04-10T03:06:49;12.60;;;8.57;;
75358;SDS011;64046;51.978;5.934;2023-04-10T03:09:19;13.77;;;8.32;;
75358;SDS011;64046;51.978;5.934;2023-04-10T03:11:48;14.52;;;8.85;;
75358;SDS011;64046;51.978;5.934;2023-04-10T03:14:17;14.63;;;8.35;;
75358;SDS011;64046;51.978;5.934;2023-04-10T03:16:47;12.73;;;9.00;;
75358;SDS011;64046;51.978;5.934;2023-04-10T03:19:19;14.55;;;9.25;;
75358;SDS011;64046;51.978;5.934;2023-04-10T03:21:48;12.82;;;8.90;;
75358;SDS011;64046;51.978;5.934;2023-04-10T03:24:18;17.13;;;10.45;;
75358;SDS011;64046;51.978;5.934;2023-04-10T03:26:47;13.13;;;8.88;;
75358;SDS011;64046;51.978;5.934;2023-04-10T03:29:17;14.98;;;9.32;;
75358;SDS011;64046;51.978;5.934;2023-04-10T03:31:47;18.45;;;10.82;;
75358;SDS011;64046;51.978;5.934;2023-04-10T03:34:19;16.48;;;10.45;;
75358;SDS011;64046;51.978;5.934;2023-04-10T03:36:48;14.85;;;10.43;;
75358;SDS011;64046;51.978;5.934;2023-04-10T03:39:17;17.00;;;11.18;;
75358;SDS011;64046;51.978;5.934;2023-04-10T03:41:46;16.33;;;10.45;;
75358;SDS011;64046;51.978;5.934;2023-04-10T03:44:16;14.27;;;9.63;;
75358;SDS011;64046;51.978;5.934;2023-04-10T03:46:47;19.75;;;13.00;;
75358;SDS011;64046;51.978;5.934;2023-04-10T03:49:19;15.90;;;10.60;;
75358;SDS011;64046;51.978;5.934;2023-04-10T03:51:51;15.27;;;10.07;;
75358;SDS011;64046;51.978;5.934;2023-04-10T03:54:21;16.83;;;10.73;;
75358;SDS011;64046;51.978;5.934;2023-04-10T03:56:51;15.65;;;9.85;;
75358;SDS011;64046;51.978;5.934;2023-04-10T03:59:21;13.60;;;9.70;;
75358;SDS011;64046;51.978;5.934;2023-04-10T04:01:51;15.52;;;10.23;;
75358;SDS011;64046;51.978;5.934;2023-04-10T04:04:23;16.60;;;10.88;;
75358;SDS011;64046;51.978;5.934;2023-04-10T04:07:13;13.07;;;8.73;;
75358;SDS011;64046;51.978;5.934;2023-04-10T04:10:00;14.60;;;9.88;;
75358;SDS011;64046;51.978;5.934;2023-04-10T04:12:50;14.93;;;10.30;;
75358;SDS011;64046;51.978;5.934;2023-04-10T04:15:38;16.95;;;10.23;;
75358;SDS011;64046;51.978;5.934;2023-04-10T04:18:16;17.13;;;10.38;;
75358;SDS011;64046;51.978;5.934;2023-04-10T04:20:53;14.95;;;10.10;;
75358;SDS011;64046;51.978;5.934;2023-04-10T04:23:57;14.63;;;10.25;;
75358;SDS011;64046;51.978;5.934;2023-04-10T04:26:47;16.30;;;11.20;;
75358;SDS011;64046;51.978;5.934;2023-04-10T04:29:38;15.20;;;9.55;;
75358;SDS011;64046;51.978;5.934;2023-04-10T04:32:15;16.52;;;10.35;;
75358;SDS011;64046;51.978;5.934;2023-04-10T04:35:04;15.10;;;9.52;;
75358;SDS011;64046;51.978;5.934;2023-04-10T04:37:55;16.33;;;10.05;;
75358;SDS011;64046;51.978;5.934;2023-04-10T04:40:43;14.88;;;10.15;;
75358;SDS011;64046;51.978;5.934;2023-04-10T04:43:35;16.80;;;10.10;;
75358;SDS011;64046;51.978;5.934;2023-04-10T04:46:16;15.90;;;10.73;;
75358;SDS011;64046;51.978;5.934;2023-04-10T04:49:04;15.35;;;10.25;;
75358;SDS011;64046;51.978;5.934;2023-04-10T04:51:44;13.35;;;8.82;;
75358;SDS011;64046;51.978;5.934;2023-04-10T04:54:38;14.77;;;9.50;;
75358;SDS011;64046;51.978;5.934;2023-04-10T04:57:16;14.27;;;9.23;;
75358;SDS011;64046;51.978;5.934;2023-04-10T05:00:10;13.93;;;9.25;;
75358;SDS011;64046;51.978;5.934;2023-04-10T05:02:59;14.82;;;9.15;;
75358;SDS011;64046;51.978;5.934;2023-04-10T05:05:35;14.45;;;9.80;;
75358;SDS011;64046;51.978;5.934;2023-04-10T05:08:22;14.27;;;9.25;;
75358;SDS011;64046;51.978;5.934;2023-04-10T05:11:08;12.63;;;8.57;;
75358;SDS011;64046;51.978;5.934;2023-04-10T05:13:55;16.70;;;9.43;;
75358;SDS011;64046;51.978;5.934;2023-04-10T05:16:43;15.40;;;9.77;;
75358;SDS011;64046;51.978;5.934;2023-04-10T05:19:22;15.73;;;10.30;;
75358;SDS011;64046;51.978;5.934;2023-04-10T05:22:09;13.00;;;8.98;;
75358;SDS011;64046;51.978;5.934;2023-04-10T05:24:57;14.77;;;9.13;;
75358;SDS011;64046;51.978;5.934;2023-04-10T05:27:38;18.33;;;11.10;;
75358;SDS011;64046;51.978;5.934;2023-04-10T05:30:26;14.00;;;8.90;;
75358;SDS011;64046;51.978;5.934;2023-04-10T05:33:27;13.48;;;9.00;;
75358;SDS011;64046;51.978;5.934;2023-04-10T05:36:23;18.00;;;10.75;;
75358;SDS011;64046;51.978;5.934;2023-04-10T05:39:10;13.95;;;8.73;;
75358;SDS011;64046;51.978;5.934;2023-04-10T05:42:15;13.77;;;8.52;;
75358;SDS011;64046;51.978;5.934;2023-04-10T05:44:54;12.48;;;8.88;;
75358;SDS011;64046;51.978;5.934;2023-04-10T05:47:37;14.75;;;9.68;;
75358;SDS011;64046;51.978;5.934;2023-04-10T05:50:35;13.73;;;9.27;;
75358;SDS011;64046;51.978;5.934;2023-04-10T05:53:13;14.43;;;9.60;;
75358;SDS011;64046;51.978;5.934;2023-04-10T05:55:55;13.18;;;8.52;;
75358;SDS011;64046;51.978;5.934;2023-04-10T05:58:45;13.18;;;8.13;;
75358;SDS011;64046;51.978;5.934;2023-04-10T06:01:17;15.52;;;9.18;;
75358;SDS011;64046;51.978;5.934;2023-04-10T06:04:06;12.82;;;8.90;;
75358;SDS011;64046;51.978;5.934;2023-04-10T06:06:37;13.98;;;8.73;;
75358;SDS011;64046;51.978;5.934;2023-04-10T06:09:06;12.13;;;8.75;;
75358;SDS011;64046;51.978;5.934;2023-04-10T06:11:35;12.65;;;9.38;;
75358;SDS011;64046;51.978;5.934;2023-04-10T06:14:05;12.27;;;8.90;;
75358;SDS011;64046;51.978;5.934;2023-04-10T06:16:42;13.82;;;9.02;;
75358;SDS011;64046;51.978;5.934;2023-04-10T06:19:11;12.38;;;8.35;;
75358;SDS011;64046;51.978;5.934;2023-04-10T06:21:41;12.35;;;8.82;;
75358;SDS011;64046;51.978;5.934;2023-04-10T06:24:11;14.25;;;9.07;;
75358;SDS011;64046;51.978;5.934;2023-04-10T06:26:41;17.30;;;9.23;;
75358;SDS011;64046;51.978;5.934;2023-04-10T06:29:10;14.60;;;9.93;;
75358;SDS011;64046;51.978;5.934;2023-04-10T06:31:42;15.77;;;9.02;;
75358;SDS011;64046;51.978;5.934;2023-04-10T06:34:12;13.38;;;9.00;;
75358;SDS011;64046;51.978;5.934;2023-04-10T06:36:51;16.55;;;10.13;;
75358;SDS011;64046;51.978;5.934;2023-04-10T06:39:21;13.35;;;9.05;;
75358;SDS011;64046;51.978;5.934;2023-04-10T06:41:50;13.32;;;8.63;;
75358;SDS011;64046;51.978;5.934;2023-04-10T06:44:40;13.63;;;8.25;;
75358;SDS011;64046;51.978;5.934;2023-04-10T06:47:12;18.25;;;11.18;;
75358;SDS011;64046;51.978;5.934;2023-04-10T06:49:42;17.42;;;9.43;;
75358;SDS011;64046;51.978;5.934;2023-04-10T06:52:11;15.85;;;10.10;;
75358;SDS011;64046;51.978;5.934;2023-04-10T06:54:41;17.75;;;10.90;;
75358;SDS011;64046;51.978;5.934;2023-04-10T06:57:10;15.88;;;9.32;;
75358;SDS011;64046;51.978;5.934;2023-04-10T06:59:39;13.70;;;9.10;;
75358;SDS011;64046;51.978;5.934;2023-04-10T07:02:08;14.40;;;8.98;;
75358;SDS011;64046;51.978;5.934;2023-04-10T07:04:40;14.27;;;8.90;;
75358;SDS011;64046;51.978;5.934;2023-04-10T07:07:10;14.20;;;8.90;;
75358;SDS011;64046;51.978;5.934;2023-04-10T07:09:40;12.40;;;7.85;;
75358;SDS011;64046;51.978;5.934;2023-04-10T07:12:09;12.52;;;9.07;;
75358;SDS011;64046;51.978;5.934;2023-04-10T07:14:38;13.48;;;8.32;;
75358;SDS011;64046;51.978;5.934;2023-04-10T07:17:07;13.25;;;9.05;;
75358;SDS011;64046;51.978;5.934;2023-04-10T07:19:37;12.30;;;7.43;;
75358;SDS011;64046;51.978;5.934;2023-04-10T07:22:08;11.93;;;7.60;;
75358;SDS011;64046;51.978;5.934;2023-04-10T07:24:37;11.90;;;8.43;;
75358;SDS011;64046;51.978;5.934;2023-04-10T07:27:07;12.63;;;8.57;;
75358;SDS011;64046;51.978;5.934;2023-04-10T07:29:37;12.00;;;8.23;;
75358;SDS011;64046;51.978;5.934;2023-04-10T07:32:06;13.88;;;8.60;;
75358;SDS011;64046;51.978;5.934;2023-04-10T07:34:35;10.45;;;7.40;;
75358;SDS011;64046;51.978;5.934;2023-04-10T07:37:07;12.20;;;7.68;;
75358;SDS011;64046;51.978;5.934;2023-04-10T07:39:36;14.10;;;8.02;;
75358;SDS011;64046;51.978;5.934;2023-04-10T07:42:05;14.90;;;7.65;;
75358;SDS011;64046;51.978;5.934;2023-04-10T07:44:34;14.82;;;8.38;;
75358;SDS011;64046;51.978;5.934;2023-04-10T07:47:03;11.25;;;8.27;;
75358;SDS011;64046;51.978;5.934;2023-04-10T07:49:34;12.15;;;7.75;;
75358;SDS011;64046;51.978;5.934;2023-04-10T07:52:03;9.65;;;7.00;;
75358;SDS011;64046;51.978;5.934;2023-04-10T07:54:35;9.85;;;6.68;;
75358;SDS011;64046;51.978;5.934;2023-04-10T07:57:04;12.90;;;8.32;;
75358;SDS011;64046;51.978;5.934;2023-04-10T07:59:33;12.70;;;8.52;;
75358;SDS011;64046;51.978;5.934;2023-04-10T08:02:02;13.05;;;7.93;;
75358;SDS011;64046;51.978;5.934;2023-04-10T08:04:31;10.82;;;7.63;;
75358;SDS011;64046;51.978;5.934;2023-04-10T08:07:01;10.07;;;7.13;;
75358;SDS011;64046;51.978;5.934;2023-04-10T08:09:30;11.77;;;7.88;;
75358;SDS011;64046;51.978;5.934;2023-04-10T08:12:02;9.77;;;6.85;;
75358;SDS011;64046;51.978;5.934;2023-04-10T08:14:31;11.48;;;7.80;;
75358;SDS011;64046;51.978;5.934;2023-04-10T08:17:00;12.57;;;7.40;;
75358;SDS011;64046;51.978;5.934;2023-04-10T08:19:29;12.38;;;7.90;;
75358;SDS011;64046;51.978;5.934;2023-04-10T08:21:59;10.05;;;7.40;;
75358;SDS011;64046;51.978;5.934;2023-04-10T08:24:28;10.43;;;7.03;;
75358;SDS011;64046;51.978;5.934;2023-04-10T08:26:57;10.35;;;7.28;;
75358;SDS011;64046;51.978;5.934;2023-04-10T08:29:28;9.88;;;7.07;;
75358;SDS011;64046;51.978;5.934;2023-04-10T08:31:57;11.43;;;7.53;;
75358;SDS011;64046;51.978;5.934;2023-04-10T08:34:27;9.55;;;6.97;;
75358;SDS011;64046;51.978;5.934;2023-04-10T08:36:57;11.55;;;7.25;;
75358;SDS011;64046;51.978;5.934;2023-04-10T08:39:26;9.38;;;6.82;;
75358;SDS011;64046;51.978;5.934;2023-04-10T08:41:55;10.85;;;6.82;;
75358;SDS011;64046;51.978;5.934;2023-04-10T08:44:24;10.20;;;7.40;;
75358;SDS011;64046;51.978;5.934;2023-04-10T08:46:56;10.27;;;6.70;;
75358;SDS011;64046;51.978;5.934;2023-04-10T08:49:28;10.55;;;7.45;;
75358;SDS011;64046;51.978;5.934;2023-04-10T08:52:05;9.93;;;6.15;;
75358;SDS011;64046;51.978;5.934;2023-04-10T08:54:37;10.20;;;6.07;;
75358;SDS011;64046;51.978;5.934;2023-04-10T08:57:06;9.15;;;6.22;;
75358;SDS011;64046;51.978;5.934;2023-04-10T08:59:42;9.23;;;6.75;;
75358;SDS011;64046;51.978;5.934;2023-04-10T09:02:14;9.65;;;6.63;;
75358;SDS011;64046;51.978;5.934;2023-04-10T09:04:44;10.75;;;6.95;;
75358;SDS011;64046;51.978;5.934;2023-04-10T09:07:16;9.88;;;6.25;;
75358;SDS011;64046;51.978;5.934;2023-04-10T09:09:48;9.60;;;6.75;;
75358;SDS011;64046;51.978;5.934;2023-04-10T09:12:17;10.25;;;7.50;;
75358;SDS011;64046;51.978;5.934;2023-04-10T09:14:46;9.85;;;6.53;;
75358;SDS011;64046;51.978;5.934;2023-04-10T09:17:21;12.65;;;6.85;;
75358;SDS011;64046;51.978;5.934;2023-04-10T09:19:52;11.93;;;7.05;;
75358;SDS011;64046;51.978;5.934;2023-04-10T09:22:28;7.78;;;5.72;;
75358;SDS011;64046;51.978;5.934;2023-04-10T09:24:59;11.73;;;6.40;;
75358;SDS011;64046;51.978;5.934;2023-04-10T09:27:29;10.93;;;6.85;;
75358;SDS011;64046;51.978;5.934;2023-04-10T09:30:00;8.65;;;6.50;;
75358;SDS011;64046;51.978;5.934;2023-04-10T09:32:38;10.00;;;6.97;;
75358;SDS011;64046;51.978;5.934;2023-04-10T09:35:10;10.02;;;6.85;;
75358;SDS011;64046;51.978;5.934;2023-04-10T09:37:40;9.52;;;6.95;;
75358;SDS011;64046;51.978;5.934;2023-04-10T09:40:21;8.75;;;6.70;;
75358;SDS011;64046;51.978;5.934;2023-04-10T09:42:52;9.70;;;6.50;;
75358;SDS011;64046;51.978;5.934;2023-04-10T09:45:23;9.75;;;6.47;;
75358;SDS011;64046;51.978;5.934;2023-04-10T09:48:04;6.95;;;5.40;;
75358;SDS011;64046;51.978;5.934;2023-04-10T09:50:34;10.13;;;6.38;;
75358;SDS011;64046;51.978;5.934;2023-04-10T09:53:05;10.45;;;6.18;;
75358;SDS011;64046;51.978;5.934;2023-04-10T09:55:34;11.02;;;6.93;;
75358;SDS011;64046;51.978;5.934;2023-04-10T09:58:04;9.43;;;6.93;;
75358;SDS011;64046;51.978;5.934;2023-04-10T10:00:36;11.70;;;6.85;;
75358;SDS011;64046;51.978;5.934;2023-04-10T10:03:12;8.70;;;6.28;;
75358;SDS011;64046;51.978;5.934;2023-04-10T10:05:42;8.60;;;6.20;;
75358;SDS011;64046;51.978;5.934;2023-04-10T10:08:13;12.95;;;6.22;;
75358;SDS011;64046;51.978;5.934;2023-04-10T10:10:43;10.25;;;6.30;;
75358;SDS011;64046;51.978;5.934;2023-04-10T10:13:15;8.82;;;6.15;;
75358;SDS011;64046;51.978;5.934;2023-04-10T10:15:54;9.23;;;6.78;;
75358;SDS011;64046;51.978;5.934;2023-04-10T10:18:34;9.88;;;6.47;;
75358;SDS011;64046;51.978;5.934;2023-04-10T10:21:08;8.85;;;6.10;;
75358;SDS011;64046;51.978;5.934;2023-04-10T10:23:37;12.50;;;6.97;;
75358;SDS011;64046;51.978;5.934;2023-04-10T10:26:10;10.40;;;6.28;;
75358;SDS011;64046;51.978;5.934;2023-04-10T10:28:40;9.02;;;6.13;;
75358;SDS011;64046;51.978;5.934;2023-04-10T10:31:10;9.38;;;5.97;;
75358;SDS011;64046;51.978;5.934;2023-04-10T10:33:44;9.23;;;5.72;;
75358;SDS011;64046;51.978;5.934;2023-04-10T10:36:15;7.93;;;5.57;;
75358;SDS011;64046;51.978;5.934;2023-04-10T10:38:47;6.90;;;4.55;;
75358;SDS011;64046;51.978;5.934;2023-04-10T10:41:27;10.90;;;5.78;;
75358;SDS011;64046;51.978;5.934;2023-04-10T10:44:05;9.90;;;5.38;;
75358;SDS011;64046;51.978;5.934;2023-04-10T10:46:42;6.40;;;4.65;;
75358;SDS011;64046;51.978;5.934;2023-04-10T10:49:18;5.80;;;4.22;;
75358;SDS011;64046;51.978;5.934;2023-04-10T10:51:47;8.27;;;5.50;;
75358;SDS011;64046;51.978;5.934;2023-04-10T10:54:27;6.75;;;4.80;;
75358;SDS011;64046;51.978;5.934;2023-04-10T10:56:57;7.13;;;5.28;;
75358;SDS011;64046;51.978;5.934;2023-04-10T11:02:23;9.50;;;5.10;;
75358;SDS011;64046;51.978;5.934;2023-04-10T11:04:55;9.07;;;4.90;;
75358;SDS011;64046;51.978;5.934;2023-04-10T11:07:57;16.02;;;5.50;;
75358;SDS011;64046;51.978;5.934;2023-04-10T11:13:28;7.88;;;4.65;;
75358;SDS011;64046;51.978;5.934;2023-04-10T11:15:58;6.53;;;4.45;;
75358;SDS011;64046;51.978;5.934;2023-04-10T11:27:36;7.28;;;4.88;;
75358;SDS011;64046;51.978;5.934;2023-04-10T11:33:01;6.80;;;4.97;;
75358;SDS011;64046;51.978;5.934;2023-04-10T11:35:32;8.02;;;5.03;;
75358;SDS011;64046;51.978;5.934;2023-04-10T11:38:13;6.53;;;4.65;;
75358;SDS011;64046;51.978;5.934;2023-04-10T11:40:53;7.07;;;4.78;;
75358;SDS011;64046;51.978;5.934;2023-04-10T11:43:23;5.97;;;4.45;;
75358;SDS011;64046;51.978;5.934;2023-04-10T11:45:59;5.97;;;4.30;;
75358;SDS011;64046;51.978;5.934;2023-04-10T11:48:29;5.55;;;4.38;;
75358;SDS011;64046;51.978;5.934;2023-04-10T11:51:05;7.78;;;4.05;;
75358;SDS011;64046;51.978;5.934;2023-04-10T11:53:37;5.78;;;4.05;;
75358;SDS011;64046;51.978;5.934;2023-04-10T11:56:14;5.90;;;4.25;;
75358;SDS011;64046;51.978;5.934;2023-04-10T11:58:45;8.95;;;4.05;;
75358;SDS011;64046;51.978;5.934;2023-04-10T12:01:19;5.22;;;3.75;;
75358;SDS011;64046;51.978;5.934;2023-04-10T12:03:50;4.88;;;3.97;;
75358;SDS011;64046;51.978;5.934;2023-04-10T12:06:19;10.70;;;4.60;;
75358;SDS011;64046;51.978;5.934;2023-04-10T12:08:52;8.35;;;4.38;;
75358;SDS011;64046;51.978;5.934;2023-04-10T12:11:22;7.10;;;4.70;;
75358;SDS011;64046;51.978;5.934;2023-04-10T12:13:54;7.72;;;4.03;;
75358;SDS011;64046;51.978;5.934;2023-04-10T12:16:24;6.20;;;4.38;;
75358;SDS011;64046;51.978;5.934;2023-04-10T12:18:54;6.30;;;4.20;;
75358;SDS011;64046;51.978;5.934;2023-04-10T12:21:24;9.88;;;4.13;;
75358;SDS011;64046;51.978;5.934;2023-04-10T12:23:56;7.50;;;3.88;;
75358;SDS011;64046;51.978;5.934;2023-04-10T12:26:25;5.35;;;3.83;;
75358;SDS011;64046;51.978;5.934;2023-04-10T12:28:54;5.13;;;3.75;;
75358;SDS011;64046;51.978;5.934;2023-04-10T12:31:27;5.43;;;3.80;;
75358;SDS011;64046;51.978;5.934;2023-04-10T12:33:57;4.20;;;3.30;;
75358;SDS011;64046;51.978;5.934;2023-04-10T12:36:28;4.57;;;3.22;;
75358;SDS011;64046;51.978;5.934;2023-04-10T12:39:02;5.80;;;3.40;;
75358;SDS011;64046;51.978;5.934;2023-04-10T12:41:32;7.75;;;3.70;;
75358;SDS011;64046;51.978;5.934;2023-04-10T12:44:06;4.90;;;3.60;;
75358;SDS011;64046;51.978;5.934;2023-04-10T12:46:35;3.83;;;2.95;;
75358;SDS011;64046;51.978;5.934;2023-04-10T12:49:08;3.92;;;2.90;;
75358;SDS011;64046;51.978;5.934;2023-04-10T12:51:44;4.75;;;3.40;;
75358;SDS011;64046;51.978;5.934;2023-04-10T12:54:30;4.57;;;3.22;;
75358;SDS011;64046;51.978;5.934;2023-04-10T12:57:02;6.65;;;3.20;;
75358;SDS011;64046;51.978;5.934;2023-04-10T12:59:31;4.03;;;2.80;;
75358;SDS011;64046;51.978;5.934;2023-04-10T13:02:00;6.28;;;3.03;;
75358;SDS011;64046;51.978;5.934;2023-04-10T13:04:29;4.63;;;3.00;;
75358;SDS011;64046;51.978;5.934;2023-04-10T13:06:59;5.05;;;3.33;;
75358;SDS011;64046;51.978;5.934;2023-04-10T13:09:31;5.43;;;3.38;;
75358;SDS011;64046;51.978;5.934;2023-04-10T13:12:00;7.95;;;3.22;;
75358;SDS011;64046;51.978;5.934;2023-04-10T13:14:31;4.07;;;3.28;;
75358;SDS011;64046;51.978;5.934;2023-04-10T13:17:01;4.07;;;2.92;;
75358;SDS011;64046;51.978;5.934;2023-04-10T13:19:30;6.70;;;3.28;;
75358;SDS011;64046;51.978;5.934;2023-04-10T13:21:59;4.43;;;3.35;;
75358;SDS011;64046;51.978;5.934;2023-04-10T13:24:32;4.57;;;3.20;;
75358;SDS011;64046;51.978;5.934;2023-04-10T13:27:01;4.28;;;3.25;;
75358;SDS011;64046;51.978;5.934;2023-04-10T13:29:31;5.68;;;3.08;;
75358;SDS011;64046;51.978;5.934;2023-04-10T13:32:00;6.72;;;3.42;;
75358;SDS011;64046;51.978;5.934;2023-04-10T13:34:30;4.97;;;3.40;;
75358;SDS011;64046;51.978;5.934;2023-04-10T13:36:59;4.28;;;3.22;;
75358;SDS011;64046;51.978;5.934;2023-04-10T13:39:31;5.70;;;3.40;;
75358;SDS011;64046;51.978;5.934;2023-04-10T13:42:01;3.13;;;2.70;;
75358;SDS011;64046;51.978;5.934;2023-04-10T13:44:30;6.68;;;3.25;;
75358;SDS011;64046;51.978;5.934;2023-04-10T13:46:59;6.45;;;3.10;;
75358;SDS011;64046;51.978;5.934;2023-04-10T13:49:28;5.45;;;3.15;;
75358;SDS011;64046;51.978;5.934;2023-04-10T13:51:57;4.68;;;3.13;;
75358;SDS011;64046;51.978;5.934;2023-04-10T13:54:27;6.07;;;3.05;;
75358;SDS011;64046;51.978;5.934;2023-04-10T13:56:58;3.30;;;2.78;;
75358;SDS011;64046;51.978;5.934;2023-04-10T13:59:28;4.68;;;2.92;;
75358;SDS011;64046;51.978;5.934;2023-04-10T14:01:57;4.20;;;3.03;;
75358;SDS011;64046;51.978;5.934;2023-04-10T14:04:26;4.53;;;2.70;;
75358;SDS011;64046;51.978;5.934;2023-04-10T14:06:55;4.80;;;3.45;;
75358;SDS011;64046;51.978;5.934;2023-04-10T14:09:26;4.22;;;3.15;;
75358;SDS011;64046;51.978;5.934;2023-04-10T14:11:58;4.25;;;2.83;;
75358;SDS011;64046;51.978;5.934;2023-04-10T14:14:28;6.25;;;3.10;;
75358;SDS011;64046;51.978;5.934;2023-04-10T14:16:57;3.15;;;2.70;;
75358;SDS011;64046;51.978;5.934;2023-04-10T14:19:26;5.85;;;3.00;;
75358;SDS011;64046;51.978;5.934;2023-04-10T14:21:55;5.88;;;2.92;;
75358;SDS011;64046;51.978;5.934;2023-04-10T14:24:25;5.07;;;3.40;;
75358;SDS011;64046;51.978;5.934;2023-04-10T14:26:54;5.63;;;2.97;;
75358;SDS011;64046;51.978;5.934;2023-04-10T14:29:28;4.97;;;3.25;;
75358;SDS011;64046;51.978;5.934;2023-04-10T14:31:57;4.70;;;3.25;;
75358;SDS011;64046;51.978;5.934;2023-04-10T14:34:26;3.88;;;2.80;;
75358;SDS011;64046;51.978;5.934;2023-04-10T14:36:55;3.72;;;2.72;;
75358;SDS011;64046;51.978;5.934;2023-04-10T14:39:25;6.80;;;2.90;;
75358;SDS011;64046;51.978;5.934;2023-04-10T14:41:54;3.83;;;2.53;;
75358;SDS011;64046;51.978;5.934;2023-04-10T14:44:23;8.07;;;2.90;;
75358;SDS011;64046;51.978;5.934;2023-04-10T14:46:55;4.80;;;3.40;;
75358;SDS011;64046;51.978;5.934;2023-04-10T14:49:24;7.43;;;2.75;;
75358;SDS011;64046;51.978;5.934;2023-04-10T14:51:53;2.88;;;2.42;;
75358;SDS011;64046;51.978;5.934;2023-04-10T14:54:22;5.55;;;2.70;;
75358;SDS011;64046;51.978;5.934;2023-04-10T14:56:51;3.80;;;2.75;;
75358;SDS011;64046;51.978;5.934;2023-04-10T14:59:22;4.50;;;2.85;;
75358;SDS011;64046;51.978;5.934;2023-04-10T15:01:51;6.70;;;3.53;;
75358;SDS011;64046;51.978;5.934;2023-04-10T15:04:22;4.93;;;3.40;;
75358;SDS011;64046;51.978;5.934;2023-04-10T15:06:52;7.43;;;3.40;;
75358;SDS011;64046;51.978;5.934;2023-04-10T15:09:21;4.43;;;2.95;;
75358;SDS011;64046;51.978;5.934;2023-04-10T15:11:50;3.80;;;2.97;;
75358;SDS011;64046;51.978;5.934;2023-04-10T15:14:20;3.50;;;2.60;;
75358;SDS011;64046;51.978;5.934;2023-04-10T15:16:49;6.13;;;3.33;;
75358;SDS011;64046;51.978;5.934;2023-04-10T15:19:18;5.30;;;2.65;;
75358;SDS011;64046;51.978;5.934;2023-04-10T15:21:50;4.95;;;2.42;;
75358;SDS011;64046;51.978;5.934;2023-04-10T15:24:19;2.25;;;1.98;;
75358;SDS011;64046;51.978;5.934;2023-04-10T15:26:49;4.28;;;2.65;;
75358;SDS011;64046;51.978;5.934;2023-04-10T15:29:18;4.22;;;3.00;;
75358;SDS011;64046;51.978;5.934;2023-04-10T15:31:47;4.88;;;2.72;;
75358;SDS011;64046;51.978;5.934;2023-04-10T15:34:17;4.10;;;2.63;;